Time;durP1;ratioP1;P1;durP2;ratioP2;P2;SDS_P1;SDS_P2;PMS_P1;PMS_P2;Temp;Humidity;BMP_temperature;BMP_pressure;BME280_temperature;BME280_humidity;BME280_pressure;Samples;Min_cycle;Max_cycle;Signal;HPM_P1;HPM_P2
2022/09/22 00:01:00;;;;;;;2.97;2.17;;;;;;;8.19;87.29;99334.06;4168714;28;20200;-52
2022/09/22 00:03:02;;;;;;;2.60;1.92;;;;;;;8.20;87.09;99329.44;4204661;28;20211;-50
2022/09/22 00:05:04;;;;;;;10.77;2.05;;;;;;;8.17;87.15;99330.69;4167327;28;20231;-52
2022/09/22 00:07:06;;;;;;;2.17;2.08;;;;;;;8.19;86.88;99328.63;4199251;28;20313;-50
2022/09/22 00:09:11;;;;;;;3.22;1.50;;;;;;;8.04;86.85;99329.88;4170804;28;20666;-49
2022/09/22 00:11:19;;;;;;;2.60;1.80;;;;;;;7.99;86.69;99321.50;4170549;28;20203;-51
2022/09/22 00:13:20;;;;;;;2.50;1.73;;;;;;;7.96;87.03;99324.69;4168736;28;20257;-51
2022/09/22 00:15:22;;;;;;;3.45;2.08;;;;;;;8.00;87.25;99328.63;4166718;28;20205;-50
2022/09/22 00:17:24;;;;;;;2.47;2.00;;;;;;;7.87;86.57;99324.06;4170372;28;20565;-50
2022/09/22 00:19:36;;;;;;;3.85;1.90;;;;;;;7.92;87.16;99331.59;4158525;28;20227;-50
2022/09/22 00:21:38;;;;;;;2.00;1.90;;;;;;;7.90;87.05;99329.06;4150114;28;20292;-51
2022/09/22 00:23:41;;;;;;;2.90;2.08;;;;;;;7.87;87.09;99323.22;4166293;28;20737;-50
2022/09/22 00:25:43;;;;;;;3.42;2.20;;;;;;;7.85;87.32;99319.88;4187028;28;20227;-50
2022/09/22 00:27:45;;;;;;;4.05;2.42;;;;;;;7.82;87.36;99323.03;4159223;28;21187;-51
2022/09/22 00:29:46;;;;;;;2.30;2.20;;;;;;;7.81;87.76;99324.09;4152864;28;20721;-50
2022/09/22 00:31:48;;;;;;;2.05;1.65;;;;;;;7.78;87.49;99324.50;4153960;28;20623;-50
2022/09/22 00:33:52;;;;;;;2.83;2.63;;;;;;;7.82;87.39;99323.84;4152531;28;20702;-51
2022/09/22 00:35:57;;;;;;;2.40;2.22;;;;;;;7.82;87.21;99326.56;4185811;28;20287;-50
2022/09/22 00:37:59;;;;;;;3.47;2.22;;;;;;;7.75;87.75;99324.94;4181523;28;20326;-50
2022/09/22 00:40:01;;;;;;;2.22;2.00;;;;;;;7.74;87.75;99334.13;4159045;28;20256;-50
2022/09/22 00:42:03;;;;;;;3.25;1.90;;;;;;;7.64;88.06;99334.59;4158466;28;20201;-51
2022/09/22 00:44:20;;;;;;;2.30;2.10;;;;;;;7.60;87.78;99327.03;4170410;28;20290;-51
2022/09/22 00:46:27;;;;;;;2.17;1.88;;;;;;;7.58;87.86;99330.00;4170824;28;20295;-51
2022/09/22 00:48:31;;;;;;;2.17;1.95;;;;;;;7.64;88.08;99322.84;4168972;28;20207;-49
2022/09/22 00:50:33;;;;;;;2.15;1.95;;;;;;;7.57;87.88;99317.38;4167110;28;20223;-49
2022/09/22 00:52:50;;;;;;;1.92;1.80;;;;;;;7.54;87.56;99316.97;4155078;28;20288;-49
2022/09/22 00:54:55;;;;;;;4.38;1.65;;;;;;;7.47;87.68;99310.69;4184873;28;20323;-51
2022/09/22 00:57:04;;;;;;;2.65;1.85;;;;;;;7.42;87.75;99313.25;4165691;28;20295;-51
2022/09/22 00:59:09;;;;;;;2.58;2.33;;;;;;;7.35;87.56;99323.31;4181654;28;20209;-51
2022/09/22 01:01:10;;;;;;;2.70;2.22;;;;;;;7.32;88.24;99323.69;4166136;28;20199;-52
2022/09/22 01:03:17;;;;;;;1.92;1.83;;;;;;;7.33;88.61;99319.94;4134197;28;20213;-50
2022/09/22 01:05:20;;;;;;;2.10;2.00;;;;;;;7.29;88.85;99316.78;4154141;28;20256;-50
2022/09/22 01:07:25;;;;;;;6.70;1.80;;;;;;;7.34;88.76;99321.59;4165334;28;20724;-49
2022/09/22 01:09:27;;;;;;;2.47;2.33;;;;;;;7.31;88.59;99322.03;4167993;28;20348;-51
2022/09/22 01:11:30;;;;;;;2.67;2.45;;;;;;;7.34;88.37;99322.44;4183099;28;20221;-50
2022/09/22 01:13:54;;;;;;;2.15;2.05;;;;;;;7.34;87.97;99321.59;4181397;28;20214;-50
2022/09/22 01:16:37;;;;;;;3.30;2.20;;;;;;;7.36;87.83;99314.09;4167456;28;20200;-50
2022/09/22 01:18:47;;;;;;;2.53;2.33;;;;;;;7.36;88.13;99314.09;4161481;28;20211;-50
2022/09/22 01:21:22;;;;;;;1.70;1.60;;;;;;;7.33;87.42;99314.47;4180963;28;20346;-50
2022/09/22 01:23:38;;;;;;;2.90;2.70;;;;;;;7.36;87.60;99316.81;4172169;28;20575;-50
2022/09/22 01:26:05;;;;;;;4.43;2.03;;;;;;;7.29;87.63;99307.81;4198843;28;20313;-51
2022/09/22 01:28:28;;;;;;;2.10;1.90;;;;;;;7.26;87.91;99313.66;4168188;28;20212;-50
2022/09/22 01:30:37;;;;;;;2.33;2.13;;;;;;;7.22;87.94;99309.69;4183658;28;20285;-49
2022/09/22 01:32:39;;;;;;;4.32;2.72;;;;;;;7.18;88.24;99311.13;4158946;28;20331;-49
2022/09/22 01:34:54;;;;;;;2.60;1.80;;;;;;;7.10;87.96;99312.16;4174370;28;20214;-50
2022/09/22 01:36:56;;;;;;;1.92;1.80;;;;;;;7.09;88.29;99305.06;4152687;28;20205;-50
2022/09/22 01:39:11;;;;;;;1.85;1.75;;;;;;;7.01;88.88;99305.28;4166534;28;20746;-50
2022/09/22 01:41:52;;;;;;;2.28;2.10;;;;;;;6.90;88.90;99302.34;4183432;28;20200;-51
2022/09/22 01:44:00;;;;;;;3.45;2.22;;;;;;;6.97;89.21;99297.75;4156173;28;20284;-49
2022/09/22 01:46:06;;;;;;;1.88;1.52;;;;;;;7.00;88.85;99294.59;4181869;28;20238;-50
2022/09/22 01:48:14;;;;;;;2.10;1.90;;;;;;;6.93;89.62;99296.47;4165817;28;20218;-50
2022/09/22 01:50:29;;;;;;;2.50;2.17;;;;;;;6.93;89.55;99297.31;4185284;28;21042;-50
2022/09/22 01:52:32;;;;;;;2.17;2.05;;;;;;;6.96;89.57;99296.88;4151487;28;20234;-50
2022/09/22 01:54:46;;;;;;;2.17;1.98;;;;;;;6.93;88.74;99297.31;4168471;28;20263;-50
2022/09/22 01:56:52;;;;;;;4.80;2.03;;;;;;;6.86;88.84;99301.91;4168173;28;20620;-51
2022/09/22 01:59:00;;;;;;;2.85;2.13;;;;;;;6.85;89.53;99304.84;4153993;28;20292;-51
2022/09/22 02:01:07;;;;;;;2.17;1.92;;;;;;;6.82;89.25;99299.81;4151694;28;20224;-51
2022/09/22 02:03:52;;;;;;;2.85;2.42;;;;;;;6.86;89.51;99295.63;4154057;28;20682;-50
2022/09/22 02:06:03;;;;;;;2.17;2.08;;;;;;;6.79;89.60;99300.22;4158144;28;20228;-50
2022/09/22 02:08:10;;;;;;;2.55;2.35;;;;;;;6.76;89.95;99297.94;4152402;28;20212;-50
2022/09/22 02:10:14;;;;;;;3.90;2.83;;;;;;;6.74;89.51;99291.84;4157602;28;20228;-50
2022/09/22 02:12:17;;;;;;;2.85;2.53;;;;;;;6.76;89.60;99292.50;4169765;28;20212;-50
2022/09/22 02:14:19;;;;;;;2.75;2.55;;;;;;;6.74;89.05;99295.41;4154106;28;20241;-50
2022/09/22 02:16:21;;;;;;;2.55;1.90;;;;;;;6.80;89.01;99299.16;4166751;28;20289;-50
2022/09/22 02:18:31;;;;;;;2.45;2.25;;;;;;;6.83;89.17;99296.06;4149815;28;20734;-50
2022/09/22 02:20:33;;;;;;;2.97;2.78;;;;;;;6.77;89.32;99296.88;4187035;28;20258;-50
2022/09/22 02:22:34;;;;;;;5.60;4.97;;;;;;;6.74;89.19;99289.13;4138630;28;20205;-52
2022/09/22 02:24:44;;;;;;;13.23;11.93;;;;;;;6.74;89.75;99286.41;4161801;28;20574;-51
2022/09/22 02:26:45;;;;;;;17.48;12.90;;;;;;;6.79;89.50;99289.34;4156727;28;20690;-49
2022/09/22 02:28:47;;;;;;;14.43;10.85;;;;;;;6.65;90.11;99279.47;4144864;28;20308;-51
2022/09/22 02:30:51;;;;;;;13.48;11.93;;;;;;;6.71;90.29;99281.38;4185027;28;20973;-50
2022/09/22 02:33:13;;;;;;;11.32;8.30;;;;;;;6.85;90.00;99283.06;4159967;28;20212;-49
2022/09/22 02:35:15;;;;;;;10.32;9.32;;;;;;;6.83;89.96;99275.13;4156689;28;20288;-49
2022/09/22 02:37:41;;;;;;;11.30;10.13;;;;;;;6.83;90.03;99275.13;4138961;28;20298;-50
2022/09/22 02:39:51;;;;;;;12.93;11.82;;;;;;;6.80;89.94;99277.41;4187428;28;20255;-50
2022/09/22 02:41:53;;;;;;;13.02;11.73;;;;;;;6.72;89.96;99280.34;4186655;28;20298;-49
2022/09/22 02:44:08;;;;;;;11.23;10.10;;;;;;;6.67;89.50;99282.81;4169774;28;20204;-50
2022/09/22 02:46:24;;;;;;;9.00;8.27;;;;;;;6.63;89.35;99279.69;4154859;28;20263;-51
2022/09/22 02:48:47;;;;;;;7.90;7.18;;;;;;;6.57;89.62;99279.69;4159540;28;20219;-49
2022/09/22 02:50:50;;;;;;;5.82;5.20;;;;;;;6.54;89.80;99277.38;4154052;28;20233;-50
2022/09/22 02:52:56;;;;;;;6.55;6.05;;;;;;;6.52;89.29;99279.47;4182843;28;20200;-51
2022/09/22 02:54:58;;;;;;;6.75;6.25;;;;;;;6.45;89.95;99278.59;4153547;28;20211;-50
2022/09/22 02:57:00;;;;;;;7.05;6.45;;;;;;;6.45;89.82;99279.47;4160665;28;20209;-50
2022/09/22 02:59:01;;;;;;;7.55;6.85;;;;;;;6.47;89.66;99276.50;4168738;28;20234;-50
2022/09/22 03:01:03;;;;;;;6.45;5.88;;;;;;;6.42;89.41;99271.69;4152917;28;20209;-51
2022/09/22 03:03:05;;;;;;;5.53;5.13;;;;;;;6.37;89.94;99273.38;4171179;28;20309;-51
2022/09/22 03:05:07;;;;;;;4.72;4.35;;;;;;;6.39;89.40;99266.69;4155568;28;20586;-50
2022/09/22 03:07:08;;;;;;;3.88;3.58;;;;;;;6.40;89.90;99270.22;4151470;28;20303;-50
2022/09/22 03:09:10;;;;;;;3.33;3.03;;;;;;;6.35;89.58;99259.16;4164979;28;21910;-50
2022/09/22 03:11:12;;;;;;;3.10;2.80;;;;;;;6.34;89.23;99271.03;4153733;28;20704;-51
2022/09/22 03:13:14;;;;;;;4.05;3.08;;;;;;;6.31;89.74;99272.31;4167192;28;20207;-49
2022/09/22 03:15:17;;;;;;;2.65;2.45;;;;;;;6.39;89.34;99274.00;4169469;28;20862;-50
2022/09/22 03:17:24;;;;;;;2.50;2.30;;;;;;;6.24;89.49;99267.88;4152794;28;20249;-50
2022/09/22 03:19:26;;;;;;;3.45;3.10;;;;;;;6.30;90.33;99267.06;4156976;28;20311;-51
2022/09/22 03:21:28;;;;;;;4.00;2.65;;;;;;;6.27;90.60;99262.03;4152042;28;20297;-50
2022/09/22 03:23:29;;;;;;;3.15;2.85;;;;;;;6.21;90.17;99260.13;4155871;28;20208;-50
2022/09/22 03:25:31;;;;;;;2.70;2.60;;;;;;;6.22;90.32;99256.41;4160592;28;20307;-50
2022/09/22 03:27:36;;;;;;;5.82;1.95;;;;;;;6.16;90.16;99254.50;4188430;28;20200;-50
2022/09/22 03:29:38;;;;;;;2.83;2.58;;;;;;;6.24;90.09;99251.59;4151989;28;20237;-50
2022/09/22 03:31:40;;;;;;;2.80;2.42;;;;;;;6.22;89.68;99259.94;4150767;28;20236;-49
2022/09/22 03:33:41;;;;;;;3.13;2.47;;;;;;;6.24;89.87;99259.72;4158583;28;21844;-50
2022/09/22 03:35:43;;;;;;;2.00;1.88;;;;;;;6.14;90.01;99257.41;4168368;28;20259;-50
2022/09/22 03:37:45;;;;;;;2.85;2.55;;;;;;;6.14;90.31;99261.97;4152481;28;20318;-50
2022/09/22 03:39:47;;;;;;;2.05;1.88;;;;;;;6.15;90.16;99264.50;4168273;28;20232;-51
2022/09/22 03:41:49;;;;;;;2.58;2.38;;;;;;;6.16;90.89;99254.50;4151859;28;20298;-49
2022/09/22 03:43:51;;;;;;;2.42;2.33;;;;;;;6.17;90.77;99256.16;4151695;28;20214;-52
2022/09/22 03:45:59;;;;;;;2.63;2.42;;;;;;;6.14;90.86;99256.56;4156894;28;20216;-50
2022/09/22 03:48:01;;;;;;;1.88;1.67;;;;;;;6.12;90.55;99258.66;4155129;28;20212;-50
2022/09/22 03:50:04;;;;;;;2.42;2.22;;;;;;;6.11;90.88;99257.81;4152746;28;20229;-52
2022/09/22 03:52:06;;;;;;;2.67;2.47;;;;;;;6.15;90.94;99252.81;4170039;28;20298;-51
2022/09/22 03:54:08;;;;;;;3.05;2.75;;;;;;;6.10;90.42;99255.31;4157906;28;20638;-50
2022/09/22 03:56:12;;;;;;;2.00;1.80;;;;;;;6.10;90.60;99250.69;4153048;28;20693;-51
2022/09/22 03:58:14;;;;;;;2.72;2.53;;;;;;;6.07;90.46;99255.69;4154003;28;20339;-50
2022/09/22 04:00:16;;;;;;;2.65;2.30;;;;;;;6.03;90.74;99249.00;4184315;28;20316;-49
2022/09/22 04:02:17;;;;;;;3.85;2.05;;;;;;;6.00;90.50;99254.81;4165499;28;20207;-50
2022/09/22 04:04:19;;;;;;;2.72;2.53;;;;;;;5.93;90.50;99254.81;4157093;28;20235;-49
2022/09/22 04:06:21;;;;;;;2.38;2.17;;;;;;;5.90;90.79;99251.66;4152219;28;20213;-51
2022/09/22 04:08:22;;;;;;;2.78;2.03;;;;;;;5.94;90.70;99251.06;4169748;28;20293;-50
2022/09/22 04:10:25;;;;;;;2.30;2.10;;;;;;;5.93;90.86;99253.97;4156563;28;20238;-51
2022/09/22 04:12:27;;;;;;;1.80;1.70;;;;;;;5.92;90.71;99246.88;4185048;28;20220;-50
2022/09/22 04:14:29;;;;;;;2.58;2.25;;;;;;;5.91;90.63;99245.19;4166303;28;20260;-49
2022/09/22 04:16:31;;;;;;;2.35;2.15;;;;;;;5.93;90.47;99249.38;4157854;28;20205;-49
2022/09/22 04:18:33;;;;;;;2.92;2.72;;;;;;;5.96;90.13;99242.72;4155142;28;20231;-50
2022/09/22 04:20:38;;;;;;;3.92;2.42;;;;;;;5.87;90.03;99243.91;4186279;28;20324;-49
2022/09/22 04:22:41;;;;;;;2.42;2.22;;;;;;;5.88;89.63;99245.63;4152660;28;20201;-49
2022/09/22 04:24:43;;;;;;;3.78;2.08;;;;;;;5.86;90.18;99242.25;4156700;28;20235;-50
2022/09/22 04:26:44;;;;;;;3.08;2.13;;;;;;;5.76;90.24;99244.47;4137445;28;20229;-50
2022/09/22 04:29:06;;;;;;;2.20;1.77;;;;;;;5.73;89.83;99232.13;4155529;28;20213;-50
2022/09/22 04:31:07;;;;;;;2.00;1.80;;;;;;;5.68;89.76;99239.19;4150842;28;20300;-51
2022/09/22 04:33:10;;;;;;;2.88;2.63;;;;;;;5.64;89.84;99240.66;4149200;28;20227;-49
2022/09/22 04:35:12;;;;;;;2.13;2.03;;;;;;;5.63;89.87;99238.97;4154363;28;20312;-51
2022/09/22 04:37:14;;;;;;;2.40;2.20;;;;;;;5.68;90.07;99244.63;4152941;28;20197;-50
2022/09/22 04:39:15;;;;;;;2.63;2.22;;;;;;;5.67;90.13;99248.38;4155734;28;20233;-49
2022/09/22 04:41:24;;;;;;;2.20;2.08;;;;;;;5.70;90.17;99243.38;4157888;28;20204;-50
2022/09/22 04:43:25;;;;;;;7.47;2.47;;;;;;;5.62;89.85;99240.03;4167621;28;20200;-50
2022/09/22 04:45:27;;;;;;;5.65;2.17;;;;;;;5.58;90.06;99233.31;4151297;28;20219;-50
2022/09/22 04:47:29;;;;;;;1.55;1.45;;;;;;;5.56;90.04;99240.81;4153813;28;20227;-50
2022/09/22 04:49:31;;;;;;;3.58;2.17;;;;;;;5.54;90.29;99237.44;4155248;28;20224;-49
2022/09/22 04:51:32;;;;;;;3.28;2.00;;;;;;;5.51;90.04;99241.44;4184806;28;20690;-49
2022/09/22 04:53:34;;;;;;;2.03;1.92;;;;;;;5.50;89.98;99241.63;4167547;28;20210;-50
2022/09/22 04:55:36;;;;;;;2.17;1.98;;;;;;;5.47;89.98;99242.84;4152095;28;20766;-49
2022/09/22 04:57:38;;;;;;;3.20;2.60;;;;;;;5.53;89.85;99241.22;4135268;28;20802;-51
2022/09/22 04:59:39;;;;;;;7.88;2.40;;;;;;;5.49;89.92;99242.66;4182823;28;20322;-50
2022/09/22 05:01:41;;;;;;;9.57;2.42;;;;;;;5.50;89.98;99244.34;4154027;28;20236;-50
2022/09/22 05:03:52;;;;;;;9.13;2.78;;;;;;;5.50;90.18;99249.75;4208826;27;21257;-52
2022/09/22 05:05:54;;;;;;;6.40;2.20;;;;;;;5.42;90.17;99239.06;4199068;28;20206;-51
2022/09/22 05:07:56;;;;;;;8.77;2.28;;;;;;;5.39;90.48;99244.88;4210652;28;20199;-51
2022/09/22 05:09:58;;;;;;;3.58;2.38;;;;;;;5.43;90.88;99246.19;4196953;28;20989;-52
2022/09/22 05:12:00;;;;;;;19.40;3.47;;;;;;;5.46;90.46;99251.19;4196521;28;20294;-51
2022/09/22 05:14:02;;;;;;;17.15;2.17;;;;;;;5.41;90.71;99243.66;4193662;28;20611;-51
2022/09/22 05:16:05;;;;;;;7.65;2.13;;;;;;;5.44;90.73;99247.84;4202780;28;20213;-51
2022/09/22 05:18:08;;;;;;;12.02;2.75;;;;;;;5.44;90.85;99253.28;4196015;28;20431;-50
2022/09/22 05:20:10;;;;;;;10.88;2.70;;;;;;;5.41;90.66;99253.66;4188659;28;20958;-50
2022/09/22 05:22:12;;;;;;;14.02;2.53;;;;;;;5.43;90.81;99257.03;4177374;28;20238;-51
2022/09/22 05:24:17;;;;;;;9.48;2.45;;;;;;;5.45;90.49;99263.09;4209717;28;20224;-52
2022/09/22 05:26:19;;;;;;;8.02;1.67;;;;;;;5.53;90.37;99262.91;4198442;28;20202;-51
2022/09/22 05:28:22;;;;;;;3.47;2.10;;;;;;;5.46;90.67;99262.03;4196576;28;20295;-51
2022/09/22 05:30:25;;;;;;;8.30;2.58;;;;;;;5.37;90.90;99257.81;4196447;28;20234;-51
2022/09/22 05:32:27;;;;;;;6.32;3.90;;;;;;;5.47;91.03;99261.84;4205896;28;20333;-50
2022/09/22 05:34:29;;;;;;;6.28;2.45;;;;;;;5.50;91.18;99266.88;4213249;28;20291;-50
2022/09/22 05:36:31;;;;;;;4.00;2.10;;;;;;;5.46;91.18;99267.47;4182770;28;20205;-52
2022/09/22 05:38:33;;;;;;;4.43;2.20;;;;;;;5.47;91.09;99269.13;4193009;28;20285;-50
2022/09/22 05:40:34;;;;;;;4.20;2.17;;;;;;;5.40;90.95;99268.25;4196323;28;20306;-50
2022/09/22 05:42:47;;;;;;;4.18;2.47;;;;;;;5.39;91.22;99266.59;4197503;28;20233;-49
2022/09/22 05:44:52;;;;;;;2.72;2.53;;;;;;;5.44;90.95;99270.38;4214295;28;20641;-50
2022/09/22 05:46:53;;;;;;;12.20;2.33;;;;;;;5.45;90.67;99260.38;4195765;28;20202;-50
2022/09/22 05:48:55;;;;;;;9.68;5.00;;;;;;;5.49;90.85;99273.34;4195016;28;20249;-50
2022/09/22 05:50:57;;;;;;;23.73;12.98;;;;;;;5.49;91.41;99262.47;4195047;28;20203;-50
2022/09/22 05:53:03;;;;;;;34.63;22.17;;;;;;;5.47;91.28;99264.56;4190430;28;20215;-51
2022/09/22 05:55:06;;;;;;;28.08;20.15;;;;;;;5.45;91.39;99263.94;4206183;28;20296;-51
2022/09/22 05:57:08;;;;;;;23.95;15.80;;;;;;;5.42;91.68;99267.03;4195662;28;20207;-50
2022/09/22 05:59:10;;;;;;;16.92;14.05;;;;;;;5.39;91.73;99266.59;4194627;28;20272;-50
2022/09/22 06:01:12;;;;;;;12.20;8.52;;;;;;;5.37;92.11;99268.69;4200647;28;20631;-50
2022/09/22 06:03:13;;;;;;;12.25;6.10;;;;;;;5.27;93.25;99263.59;4196384;28;20235;-51
2022/09/22 06:05:16;;;;;;;6.43;5.35;;;;;;;5.47;92.89;99271.84;4201609;28;20218;-50
2022/09/22 06:07:21;;;;;;;5.95;4.75;;;;;;;5.53;92.45;99262.91;4196915;28;20610;-50
2022/09/22 06:09:23;;;;;;;4.95;4.45;;;;;;;5.52;92.17;99266.69;4200263;28;20226;-50
2022/09/22 06:11:24;;;;;;;5.93;3.90;;;;;;;5.53;92.40;99269.19;4203515;28;20209;-51
2022/09/22 06:13:26;;;;;;;6.43;2.70;;;;;;;5.54;92.57;99267.31;4199957;28;20220;-50
2022/09/22 06:15:29;;;;;;;3.47;2.95;;;;;;;5.62;92.47;99267.16;4188389;28;20208;-50
2022/09/22 06:17:31;;;;;;;3.40;3.13;;;;;;;5.83;93.52;99269.81;4188558;28;20211;-50
2022/09/22 06:19:34;;;;;;;3.20;2.55;;;;;;;6.16;95.00;99270.78;4184704;28;20266;-50
2022/09/22 06:21:38;;;;;;;8.10;2.88;;;;;;;6.45;94.48;99267.72;4186100;28;20339;-51
2022/09/22 06:23:40;;;;;;;9.77;3.03;;;;;;;6.86;94.49;99262.97;4194190;28;20251;-50
2022/09/22 06:25:44;;;;;;;5.85;2.25;;;;;;;7.26;94.48;99264.66;4184080;28;20199;-51
2022/09/22 06:27:48;;;;;;;2.60;2.40;;;;;;;7.86;92.45;99267.03;4187239;28;20199;-51
2022/09/22 06:29:49;;;;;;;3.33;2.45;;;;;;;8.66;91.66;99268.16;4185327;28;20223;-51
2022/09/22 06:31:51;;;;;;;2.83;2.63;;;;;;;8.56;89.30;99266.97;4190089;28;20298;-51
2022/09/22 06:33:53;;;;;;;3.20;2.90;;;;;;;9.29;87.06;99260.78;4184188;28;20208;-52
2022/09/22 06:35:56;;;;;;;2.63;2.42;;;;;;;9.99;85.96;99268.44;4185531;28;20616;-51
2022/09/22 06:37:58;;;;;;;2.78;2.40;;;;;;;11.08;83.18;99271.59;4186719;28;20211;-53
2022/09/22 06:40:00;;;;;;;2.55;2.25;;;;;;;10.79;82.23;99263.41;4184738;28;20620;-51
2022/09/22 06:42:03;;;;;;;2.45;2.25;;;;;;;11.41;79.83;99260.91;4199046;28;20217;-51
2022/09/22 06:44:12;;;;;;;2.50;2.40;;;;;;;10.88;79.35;99262.84;4187960;28;20235;-52
2022/09/22 06:46:17;;;;;;;3.00;2.70;;;;;;;11.14;80.87;99259.69;4185909;28;20211;-50
2022/09/22 06:48:22;;;;;;;3.17;2.92;;;;;;;11.36;79.60;99258.03;4172444;28;20751;-51
2022/09/22 06:50:28;;;;;;;2.97;2.63;;;;;;;12.43;77.37;99265.72;4186629;28;20226;-51
2022/09/22 06:52:31;;;;;;;2.75;2.03;;;;;;;13.02;72.43;99266.06;4185193;28;20234;-52
2022/09/22 06:54:39;;;;;;;2.95;2.42;;;;;;;13.19;74.63;99266.94;4187251;28;20681;-50
2022/09/22 06:56:42;;;;;;;4.10;2.15;;;;;;;13.14;73.70;99269.59;4185597;28;20242;-52
2022/09/22 06:58:44;;;;;;;5.72;2.45;;;;;;;13.86;73.34;99260.34;4184100;28;20242;-52
2022/09/22 07:01:06;;;;;;;3.92;1.85;;;;;;;14.30;69.48;99258.50;4168878;28;20220;-52
2022/09/22 07:03:19;;;;;;;3.08;2.20;;;;;;;14.55;70.03;99262.38;4184862;28;20947;-51
2022/09/22 07:05:21;;;;;;;3.70;2.13;;;;;;;14.48;69.89;99267.25;4182097;28;20216;-51
2022/09/22 07:07:27;;;;;;;3.25;1.88;;;;;;;13.10;72.30;99268.41;4184640;28;20208;-51
2022/09/22 07:09:30;;;;;;;2.92;2.13;;;;;;;13.32;74.31;99258.38;4183163;28;20231;-50
2022/09/22 07:11:32;;;;;;;2.90;2.60;;;;;;;13.00;73.46;99261.91;4184857;28;20198;-49
2022/09/22 07:13:44;;;;;;;3.45;1.83;;;;;;;11.79;76.69;99250.34;4185996;28;20672;-50
2022/09/22 07:15:46;;;;;;;2.33;2.13;;;;;;;11.86;77.50;99259.28;4199371;28;20211;-49
2022/09/22 07:17:51;;;;;;;3.13;2.20;;;;;;;12.17;78.08;99266.28;4182480;28;20299;-50
2022/09/22 07:19:55;;;;;;;2.38;2.17;;;;;;;12.79;77.09;99266.19;4186617;28;20227;-50
2022/09/22 07:21:57;;;;;;;5.18;2.25;;;;;;;12.61;75.20;99273.75;4183770;28;20771;-50
2022/09/22 07:24:00;;;;;;;6.05;2.00;;;;;;;13.68;72.96;99260.59;4186069;28;20227;-50
2022/09/22 07:26:04;;;;;;;6.70;2.22;;;;;;;14.89;70.94;99263.88;4186895;28;20212;-50
2022/09/22 07:28:11;;;;;;;2.88;2.40;;;;;;;14.64;70.02;99265.53;4173945;28;20212;-51
2022/09/22 07:30:13;;;;;;;3.50;1.75;;;;;;;15.38;66.79;99268.28;4187385;28;20266;-50
2022/09/22 07:32:16;;;;;;;2.38;2.03;;;;;;;15.97;65.90;99266.22;4187968;28;20212;-49
2022/09/22 07:34:18;;;;;;;2.60;2.20;;;;;;;16.55;62.95;99266.03;4184104;28;20658;-50
2022/09/22 07:36:22;;;;;;;2.10;1.90;;;;;;;16.95;62.08;99257.88;4188084;28;20199;-51
2022/09/22 07:38:32;;;;;;;2.42;1.75;;;;;;;17.23;60.55;99260.94;4180968;28;20212;-50
2022/09/22 07:40:34;;;;;;;2.33;2.10;;;;;;;17.33;61.04;99266.50;4184472;28;21214;-51
2022/09/22 07:42:47;;;;;;;3.15;2.00;;;;;;;17.38;60.71;99261.00;4183124;28;20207;-51
2022/09/22 07:47:09;;;;;;;7.32;1.13;;;;;;;18.02;59.21;99253.75;4182962;28;20207;-50
2022/09/22 07:49:12;;;;;;;3.38;1.60;;;;;;;18.33;58.24;99258.16;4184486;28;20292;-50
2022/09/22 07:51:18;;;;;;;2.08;1.35;;;;;;;18.79;57.23;99259.63;4182554;28;20562;-50
2022/09/22 07:53:20;;;;;;;1.60;1.45;;;;;;;18.87;56.40;99256.25;4185075;28;20210;-49
2022/09/22 07:55:24;;;;;;;3.00;1.85;;;;;;;18.11;60.53;99263.16;4184889;28;20205;-50
2022/09/22 07:57:29;;;;;;;2.13;1.67;;;;;;;17.33;61.55;99266.50;4193151;28;20199;-51
2022/09/22 07:59:37;;;;;;;1.70;1.48;;;;;;;17.58;61.31;99258.25;4184372;28;20666;-51
2022/09/22 08:01:43;;;;;;;1.75;1.52;;;;;;;18.33;59.30;99263.69;4182843;28;20815;-52
2022/09/22 08:03:49;;;;;;;1.38;1.23;;;;;;;18.41;59.05;99252.84;4182881;28;20291;-50
2022/09/22 08:06:01;;;;;;;1.63;1.52;;;;;;;19.05;58.03;99259.19;4090512;28;20307;-52
2022/09/22 08:08:08;;;;;;;1.70;1.35;;;;;;;19.50;56.15;99260.84;4156014;28;20267;-50
2022/09/22 08:10:11;;;;;;;1.50;1.40;;;;;;;19.42;55.67;99258.69;4150943;28;20252;-51
2022/09/22 08:12:15;;;;;;;3.15;1.60;;;;;;;19.77;55.06;99256.47;4165990;28;20204;-49
2022/09/22 08:14:19;;;;;;;2.22;1.40;;;;;;;19.81;54.53;99256.69;4149651;28;20204;-49
2022/09/22 08:16:26;;;;;;;1.30;1.00;;;;;;;20.07;54.60;99259.00;4158618;28;20304;-51
2022/09/22 08:18:28;;;;;;;1.73;1.30;;;;;;;19.60;56.48;99255.22;4159388;28;21006;-49
2022/09/22 08:20:30;;;;;;;3.92;1.60;;;;;;;19.45;57.34;99258.94;4150541;28;20247;-50
2022/09/22 08:22:34;;;;;;;1.75;1.23;;;;;;;19.28;57.16;99257.69;4151841;28;20673;-49
2022/09/22 08:24:36;;;;;;;1.80;1.50;;;;;;;19.58;56.74;99258.28;4166643;28;20291;-49
2022/09/22 08:26:42;;;;;;;1.30;1.20;;;;;;;18.44;57.64;99257.00;4158271;28;20197;-48
2022/09/22 08:28:53;;;;;;;2.47;1.15;;;;;;;19.38;56.81;99260.41;4153484;28;20271;-50
2022/09/22 08:30:55;;;;;;;2.40;1.30;;;;;;;20.18;54.74;99252.19;4158756;28;20299;-50
2022/09/22 08:32:59;;;;;;;4.93;1.30;;;;;;;20.69;53.74;99258.81;4155157;28;20639;-50
2022/09/22 08:35:03;;;;;;;1.73;1.55;;;;;;;20.24;55.40;99261.31;4150139;28;20228;-49
2022/09/22 08:37:06;;;;;;;1.33;0.98;;;;;;;20.40;54.86;99265.56;4149808;28;20658;-50
2022/09/22 08:39:09;;;;;;;4.15;1.20;;;;;;;20.45;55.00;99257.19;4148891;28;20216;-49
2022/09/22 08:41:38;;;;;;;2.10;1.23;;;;;;;20.05;56.47;99254.81;4148908;28;20323;-50
2022/09/22 08:43:54;;;;;;;5.45;1.98;;;;;;;19.70;57.20;99244.00;4164802;28;20278;-49
2022/09/22 08:45:56;;;;;;;1.65;1.38;;;;;;;19.57;57.45;99255.81;4150809;28;20213;-50
2022/09/22 08:52:53;;;;;;;2.80;1.27;;;;;;;19.25;57.14;99247.16;4148697;28;20201;-50
2022/09/22 08:54:59;;;;;;;1.42;1.30;;;;;;;19.01;57.30;99246.19;4163242;28;20191;-49
2022/09/22 08:57:21;;;;;;;1.40;1.30;;;;;;;17.90;58.98;99248.50;4163355;28;20761;-50
2022/09/22 08:59:32;;;;;;;1.50;1.00;;;;;;;18.96;57.68;99244.25;4151071;28;20224;-50
2022/09/22 09:01:34;;;;;;;1.85;1.20;;;;;;;18.76;59.45;99238.84;4154514;28;20215;-51
2022/09/22 09:03:48;;;;;;;1.48;0.98;;;;;;;19.48;58.17;99251.97;4155562;28;20260;-49
2022/09/22 09:06:15;;;;;;;2.80;1.23;;;;;;;19.46;58.86;99243.94;4152430;28;20655;-49
2022/09/22 09:08:26;;;;;;;1.30;1.00;;;;;;;19.37;57.64;99239.31;4138752;28;20224;-49
2022/09/22 09:10:40;;;;;;;3.95;1.35;;;;;;;20.30;56.33;99243.47;4154694;28;20285;-49
2022/09/22 09:12:49;;;;;;;2.13;1.35;;;;;;;18.97;56.92;99234.81;4152110;28;20615;-48
2022/09/22 09:15:42;;;;;;;1.80;1.20;;;;;;;18.67;55.68;99236.94;4155299;28;20239;-49
2022/09/22 09:17:54;;;;;;;0.93;0.90;;;;;;;17.79;57.51;99235.78;4129007;28;20262;-50
2022/09/22 09:20:25;;;;;;;2.53;1.00;;;;;;;16.70;59.91;99244.78;4152452;28;20240;-49
2022/09/22 09:22:52;;;;;;;1.60;0.75;;;;;;;16.42;60.28;99245.22;4139395;28;20213;-48
2022/09/22 09:25:42;;;;;;;1.25;0.77;;;;;;;17.19;59.00;99237.72;4151053;28;20196;-48
2022/09/22 09:28:03;;;;;;;1.13;0.85;;;;;;;16.78;58.85;99235.97;4167336;28;20316;-49
2022/09/22 09:30:54;;;;;;;1.92;0.80;;;;;;;16.86;60.01;99237.34;4151193;28;20737;-49
2022/09/22 09:33:35;;;;;;;1.20;1.10;;;;;;;17.19;59.88;99234.94;4141829;28;20701;-49
2022/09/22 09:36:04;;;;;;;2.45;1.30;;;;;;;17.39;58.48;99223.94;4168726;28;20669;-49
2022/09/22 09:38:19;;;;;;;1.23;0.80;;;;;;;18.14;58.70;99230.19;4139420;28;20723;-50
2022/09/22 09:40:22;;;;;;;1.20;0.70;;;;;;;17.31;56.51;99224.44;4155533;28;20574;-51
2022/09/22 09:42:33;;;;;;;1.40;0.70;;;;;;;17.63;56.44;99217.53;4151400;28;20204;-50
2022/09/22 09:44:38;;;;;;;0.95;0.80;;;;;;;17.22;56.30;99217.78;4149995;28;20320;-48
2022/09/22 09:46:51;;;;;;;1.02;0.80;;;;;;;17.48;57.79;99222.25;4156995;28;20864;-49
2022/09/22 09:49:14;;;;;;;1.25;0.90;;;;;;;18.27;55.94;99217.66;4164707;28;20204;-49
2022/09/22 09:51:18;;;;;;;0.70;0.70;;;;;;;17.58;54.54;99213.97;4160479;28;20291;-48
2022/09/22 09:53:30;;;;;;;2.17;0.73;;;;;;;17.74;55.41;99201.75;4157557;28;20266;-50
2022/09/22 09:55:34;;;;;;;2.10;1.15;;;;;;;17.77;56.77;99213.09;4156641;28;20288;-50
2022/09/22 09:58:00;;;;;;;2.03;0.73;;;;;;;17.90;55.04;99208.91;4154884;28;20232;-49
2022/09/22 10:00:31;;;;;;;1.17;0.75;;;;;;;18.01;56.12;99213.31;4167294;28;20236;-48
2022/09/22 10:03:12;;;;;;;2.20;0.90;;;;;;;17.74;55.64;99207.28;4150480;28;20934;-49
2022/09/22 10:05:16;;;;;;;2.40;0.90;;;;;;;18.26;54.59;99207.69;4158118;28;20252;-49
2022/09/22 10:07:26;;;;;;;0.88;0.88;;;;;;;19.05;55.43;99194.56;4168425;28;20228;-49
2022/09/22 10:09:28;;;;;;;1.95;0.82;;;;;;;18.76;53.33;99202.78;4153913;28;20706;-49